Latest Weather Observations for Fort Denison

IDN60801

Issued at 7:12 pm EST Sunday 19 April 2015 (issued every 30 minutes, with the page automatically refreshed every 10 minutes)

About weather observations | Map of weather stations | Latest weather observations for NSW | Other Formats
Station Details ID: 066022 Name: FORT DENISON Lat: -33.86 Lon: 151.23 Height: 5.0 m
Data from the previous 72 hours. | See also: Recent months for locations in New South Wales
Date/Time
EST
Temp
°C
App
Temp
°C
Dew
Point
Rel
Hum
%
Delta-T
°C
Wind Press
QNH
hPa
Press
MSL
hPa
Rain
since 9 am
mm
Dir
 
Spd
km/h
Gust
km/h
Spd
kts
Gust
kts
19/07:00pm - - - - - S 32 48 17 26 - - -
19/06:30pm - - - - - S 33 52 18 28 - - -
19/06:00pm - - - - - S 32 52 17 28 - - -
19/05:33pm - - - - - S 32 50 17 27 - - -
19/05:30pm - - - - - S 33 50 18 27 - - -
19/05:00pm - - - - - S 30 50 16 27 - - -
19/04:31pm - - - - - SSE 32 54 17 29 - - -
19/04:30pm - - - - - SSE 32 43 17 23 - - -
19/04:00pm - - - - - SSE 37 48 20 26 - - -
19/03:30pm - - - - - S 35 56 19 30 - - -
19/03:21pm - - - - - SSE 33 52 18 28 - - -
19/03:00pm - - - - - SSE 32 50 17 27 - - -
19/02:30pm - - - - - S 28 46 15 25 - - -
19/02:09pm - - - - - S 30 50 16 27 - - -
19/02:00pm - - - - - S 28 41 15 22 - - -
19/01:30pm - - - - - S 33 54 18 29 - - -
19/01:02pm - - - - - S 28 48 15 26 - - -
19/01:00pm - - - - - S 26 43 14 23 - - -
19/12:30pm - - - - - SSW 30 43 16 23 - - -
19/12:00pm - - - - - S 30 43 16 23 - - -
19/11:51am - - - - - S 28 41 15 22 - - -
19/11:30am - - - - - S 11 20 6 11 - - -
19/11:00am - - - - - SW 11 24 6 13 - - -
19/10:30am - - - - - WSW 11 17 6 9 - - -
19/10:00am - - - - - W 22 32 12 17 - - -
19/09:30am - - - - - W 24 35 13 19 - - -
19/09:00am - - - - - WSW 22 37 12 20 - - -
19/08:30am - - - - - W 22 32 12 17 - - -
19/08:00am - - - - - W 17 26 9 14 - - -
19/07:30am - - - - - W 17 19 9 10 - - -
19/07:00am - - - - - W 13 17 7 9 - - -
19/06:30am - - - - - W 13 19 7 10 - - -
19/06:00am - - - - - WNW 9 11 5 6 - - -
19/05:30am - - - - - W 9 11 5 6 - - -
19/05:00am - - - - - W 9 13 5 7 - - -
19/04:30am - - - - - WNW 9 15 5 8 - - -
19/04:00am - - - - - W 9 15 5 8 - - -
19/03:30am - - - - - W 6 9 3 5 - - -
19/03:00am - - - - - W 7 19 4 10 - - -
19/02:30am - - - - - NW 11 17 6 9 - - -
19/02:00am - - - - - N 6 9 3 5 - - -
19/01:30am - - - - - NNW 7 11 4 6 - - -
19/01:00am - - - - - NNW 15 20 8 11 - - -
19/12:30am - - - - - NNW 19 24 10 13 - - -
19/12:00am - - - - - NW 9 15 5 8 - - -
 
Date/Time
EST
Temp
°C
App
Temp
°C
Dew
Point
Rel
Hum
%
Delta-T
°C
Wind Press
QNH
hPa
Press
MSL
hPa
Rain
since 9 am
mm
Dir
 
Spd
km/h
Gust
km/h
Spd
kts
Gust
kts
18/11:30pm - - - - - WNW 13 19 7 10 - - -
18/11:00pm - - - - - NNW 19 26 10 14 - - -
18/10:30pm - - - - - WNW 13 19 7 10 - - -
18/10:00pm - - - - - NW 30 50 16 27 - - -
18/09:41pm - - - - - WNW 28 48 15 26 - - -
18/09:30pm - - - - - WNW 24 43 13 23 - - -
18/09:23pm - - - - - NNW 20 43 11 23 - - -
18/09:00pm - - - - - N 17 24 9 13 - - -
18/08:30pm - - - - - N 17 24 9 13 - - -
18/08:00pm - - - - - N 19 24 10 13 - - -
18/07:30pm - - - - - NNE 15 20 8 11 - - -
18/07:00pm - - - - - NE 11 19 6 10 - - -
18/06:30pm - - - - - NNE 13 19 7 10 - - -
18/06:00pm - - - - - NE 13 24 7 13 - - -
18/05:30pm - - - - - NE 15 22 8 12 - - -
18/05:00pm - - - - - NE 17 24 9 13 - - -
18/04:30pm - - - - - NNE 20 28 11 15 - - -
18/04:00pm - - - - - NNE 19 30 10 16 - - -
18/03:30pm - - - - - N 19 24 10 13 - - -
18/03:00pm - - - - - N 26 33 14 18 - - -
18/02:30pm - - - - - N 24 33 13 18 - - -
18/02:00pm - - - - - NNW 24 33 13 18 - - -
18/01:30pm - - - - - N 20 30 11 16 - - -
18/01:00pm - - - - - N 17 28 9 15 - - -
18/12:30pm - - - - - NNW 22 32 12 17 - - -
18/12:00pm - - - - - NNW 24 39 13 21 - - -
18/11:30am - - - - - NNW 19 32 10 17 - - -
18/11:00am - - - - - N 20 37 11 20 - - -
18/10:30am - - - - - N 17 28 9 15 - - -
18/10:00am - - - - - N 19 28 10 15 - - -
18/09:30am - - - - - N 19 26 10 14 - - -
18/09:00am - - - - - N 19 26 10 14 - - -
18/08:30am - - - - - N 9 17 5 9 - - -
18/08:00am - - - - - N 2 6 1 3 - - -
18/07:30am - - - - - NE 4 7 2 4 - - -
18/07:00am - - - - - E 6 9 3 5 - - -
18/06:30am - - - - - E 4 7 2 4 - - -
18/06:00am - - - - - NE 7 11 4 6 - - -
18/05:30am - - - - - ENE 4 6 2 3 - - -
18/05:00am - - - - - NE 4 6 2 3 - - -
18/04:30am - - - - - NE 4 6 2 3 - - -
18/04:00am - - - - - NNW 6 7 3 4 - - -
18/03:30am - - - - - WNW 7 9 4 5 - - -
18/03:00am - - - - - WNW 6 7 3 4 - - -
18/02:30am - - - - - WNW 7 9 4 5 - - -
18/02:00am - - - - - NW 7 9 4 5 - - -
18/01:30am - - - - - W 6 7 3 4 - - -
18/01:00am - - - - - W 6 7 3 4 - - -
18/12:30am - - - - - N 6 7 3 4 - - -
18/12:00am - - - - - N 2 7 1 4 - - -
 
Date/Time
EST
Temp
°C
App
Temp
°C
Dew
Point
Rel
Hum
%
Delta-T
°C
Wind Press
QNH
hPa
Press
MSL
hPa
Rain
since 9 am
mm
Dir
 
Spd
km/h
Gust
km/h
Spd
kts
Gust
kts
17/11:30pm - - - - - NNW 6 7 3 4 - - -
17/11:00pm - - - - - N 2 4 1 2 - - -
17/10:30pm - - - - - N 6 7 3 4 - - -
17/10:00pm - - - - - NE 4 7 2 4 - - -
17/09:30pm - - - - - NE 6 11 3 6 - - -
17/09:00pm - - - - - ENE 7 11 4 6 - - -
17/08:30pm - - - - - ENE 9 11 5 6 - - -
17/08:00pm - - - - - ENE 15 19 8 10 - - -
17/07:30pm - - - - - ENE 11 13 6 7 - - -
17/07:00pm - - - - - ENE 9 11 5 6 - - -
17/06:30pm - - - - - E 11 13 6 7 - - -
17/06:00pm - - - - - E 13 15 7 8 - - -
17/05:30pm - - - - - E 11 15 6 8 - - -
17/05:00pm - - - - - E 13 17 7 9 - - -
17/04:30pm - - - - - E 13 17 7 9 - - -
17/04:00pm - - - - - E 11 13 6 7 - - -
17/03:30pm - - - - - E 11 17 6 9 - - -
17/03:00pm - - - - - E 13 17 7 9 - - -
17/02:30pm - - - - - ESE 15 19 8 10 - - -
17/02:00pm - - - - - ESE 17 19 9 10 - - -
17/01:30pm - - - - - ESE 17 19 9 10 - - -
17/01:00pm - - - - - E 9 11 5 6 - - -
17/12:30pm - - - - - E 13 17 7 9 - - -
17/12:00pm - - - - - E 7 11 4 6 - - -
17/11:30am - - - - - E 9 13 5 7 - - -
17/11:00am - - - - - E 11 13 6 7 - - -
17/10:30am - - - - - ENE 11 15 6 8 - - -
17/10:00am - - - - - ENE 13 19 7 10 - - -
17/09:30am - - - - - E 17 20 9 11 - - -
17/09:00am - - - - - E 17 19 9 10 - - -
17/08:30am - - - - - E 13 17 7 9 - - -
17/08:00am - - - - - E 11 13 6 7 - - -
17/07:30am - - - - - ESE 17 19 9 10 - - -
17/07:00am - - - - - ESE 13 17 7 9 - - -
17/06:30am - - - - - ESE 13 15 7 8 - - -
17/06:00am - - - - - ESE 13 17 7 9 - - -
17/05:30am - - - - - SE 13 17 7 9 - - -
17/05:00am - - - - - SSE 13 19 7 10 - - -
17/04:30am - - - - - ESE 9 13 5 7 - - -
17/04:00am - - - - - SE 7 13 4 7 - - -
17/03:30am - - - - - SE 9 15 5 8 - - -
17/03:00am - - - - - SSE 9 11 5 6 - - -
17/02:30am - - - - - SSE 7 11 4 6 - - -
17/02:00am - - - - - SSE 9 13 5 7 - - -
17/01:30am - - - - - SSE 9 11 5 6 - - -
17/01:00am - - - - - SSE 6 7 3 4 - - -
17/12:30am - - - - - SSE 6 9 3 5 - - -
17/12:00am - - - - - S 6 9 3 5 - - -
 
Date/Time
EST
Temp
°C
App
Temp
°C
Dew
Point
Rel
Hum
%
Delta-T
°C
Wind Press
QNH
hPa
Press
MSL
hPa
Rain
since 9 am
mm
Dir
 
Spd
km/h
Gust
km/h
Spd
kts
Gust
kts
16/11:30pm - - - - - SW 4 6 2 3 - - -
16/11:00pm - - - - - SSE 6 7 3 4 - - -
16/10:30pm - - - - - SSE 9 11 5 6 - - -
16/10:00pm - - - - - SE 13 19 7 10 - - -
16/09:30pm - - - - - SE 13 19 7 10 - - -
16/09:00pm - - - - - SE 15 28 8 15 - - -
16/08:30pm - - - - - SE 20 32 11 17 - - -
16/08:00pm - - - - - SSE 24 32 13 17 - - -
16/07:30pm - - - - - SSE 24 37 13 20 - - -

Other Formats:

Comma delimited format used in spreadsheet applications
http://www.bom.gov.au/fwo/IDN60801/IDN60801.94769.axf

JavaScript Object Notation format (JSON) in row-major order
http://www.bom.gov.au/fwo/IDN60801/IDN60801.94769.json